Time;durP1;ratioP1;P1;durP2;ratioP2;P2;SDS_P1;SDS_P2;PMS_P1;PMS_P2;Temp;Humidity;BMP_temperature;BMP_pressure;BME280_temperature;BME280_humidity;BME280_pressure;Samples;Min_cycle;Max_cycle;Signal;HPM_P1;HPM_P2
2023/03/07 00:02:08;;;;;;;;;;;;;;;21.23;33.31;100170.14;103621;1308;61665;-81
2023/03/07 00:04:33;;;;;;;;;;;;;;;21.23;33.26;100161.56;103605;1308;61406;-81
2023/03/07 00:07:01;;;;;;;;;;;;;;;21.23;33.32;100153.90;103635;1308;61364;-82
2023/03/07 00:09:26;;;;;;;;;;;;;;;21.23;33.16;100147.41;103624;1308;72578;-82
2023/03/07 00:11:52;;;;;;;;;;;;;;;21.23;33.23;100147.77;103631;1308;61272;-81
2023/03/07 00:14:18;;;;;;;;;;;;;;;21.23;33.26;100146.91;103553;1308;61313;-81
2023/03/07 00:16:43;;;;;;;;;;;;;;;21.23;33.34;100147.43;103607;1308;61313;-81
2023/03/07 00:19:10;;;;;;;;;;;;;;;21.23;33.18;100150.83;103588;1311;61208;-83
2023/03/07 00:21:35;;;;;;;;;;;;;;;21.23;33.31;100152.75;103623;1309;61276;-82
2023/03/07 00:24:01;;;;;;;;;;;;;;;21.23;33.26;100153.85;103443;1308;61281;-82
2023/03/07 00:26:27;;;;;;;;;;;;;;;21.23;33.20;100154.59;103812;1308;61422;-83
2023/03/07 00:28:52;;;;;;;;;;;;;;;21.23;33.23;100147.41;103604;1308;61355;-82
2023/03/07 00:31:18;;;;;;;;;;;;;;;21.23;33.28;100145.43;103605;1308;61295;-82
2023/03/07 00:33:43;;;;;;;;;;;;;;;21.23;33.24;100137.06;103599;1308;61381;-82
2023/03/07 00:36:13;;;;;;;;;;;;;;;21.23;33.15;100131.50;103621;1309;61512;-82
2023/03/07 00:38:40;;;;;;;;;;;;;;;21.23;33.29;100122.36;103806;1308;61314;-82
2023/03/07 00:41:07;;;;;;;;;;;;;;;21.23;33.26;100114.88;103637;1308;61356;-82
2023/03/07 00:43:34;;;;;;;;;;;;;;;21.23;33.21;100114.35;103770;1308;73918;-82
2023/03/07 00:45:59;;;;;;;;;;;;;;;21.23;33.23;100113.42;103609;1308;61332;-82
2023/03/07 00:48:25;;;;;;;;;;;;;;;21.23;33.14;100116.84;103583;1308;61454;-83
2023/03/07 00:50:51;;;;;;;;;;;;;;;21.23;33.26;100114.52;103549;1309;61306;-82
2023/03/07 00:53:17;;;;;;;;;;;;;;;21.22;33.12;100110.27;103600;1309;61435;-82
2023/03/07 00:55:52;;;;;;;;;;;;;;;21.22;33.13;100108.27;103561;1309;61469;-83
2023/03/07 00:58:18;;;;;;;;;;;;;;;21.22;33.04;100102.00;103587;1308;74596;-82
2023/03/07 01:00:43;;;;;;;;;;;;;;;21.23;33.14;100096.04;103394;1309;61326;-81
2023/03/07 01:03:09;;;;;;;;;;;;;;;21.23;33.07;100091.59;103816;1308;62196;-81
2023/03/07 01:05:37;;;;;;;;;;;;;;;21.22;33.08;100101.30;103809;1308;61331;-81
2023/03/07 01:08:03;;;;;;;;;;;;;;;21.23;33.10;100100.39;103596;1308;61765;-81
2023/03/07 01:10:29;;;;;;;;;;;;;;;21.22;33.13;100099.88;103541;1308;61323;-82
2023/03/07 01:12:55;;;;;;;;;;;;;;;21.23;33.09;100101.63;103563;1308;62106;-82
2023/03/07 01:15:21;;;;;;;;;;;;;;;21.22;33.14;100103.63;103519;1308;61307;-83
2023/03/07 01:17:47;;;;;;;;;;;;;;;21.23;33.11;100104.31;103764;1313;61490;-81
2023/03/07 01:20:12;;;;;;;;;;;;;;;21.23;33.02;100097.85;103631;1308;61330;-82
2023/03/07 01:22:38;;;;;;;;;;;;;;;21.23;33.00;100089.99;103623;1309;61397;-81
2023/03/07 01:25:04;;;;;;;;;;;;;;;21.22;33.18;100085.73;103575;1308;61302;-82
2023/03/07 01:27:29;;;;;;;;;;;;;;;21.22;32.98;100081.42;103590;1308;61383;-81
2023/03/07 01:29:57;;;;;;;;;;;;;;;21.23;33.03;100082.65;103773;1309;61406;-83
2023/03/07 01:32:23;;;;;;;;;;;;;;;21.22;33.05;100077.33;103557;1308;61327;-82
2023/03/07 01:34:48;;;;;;;;;;;;;;;21.22;33.11;100072.13;103522;1308;61358;-82
2023/03/07 01:37:14;;;;;;;;;;;;;;;21.22;32.98;100067.33;103549;1308;61452;-82
2023/03/07 01:39:39;;;;;;;;;;;;;;;21.21;33.20;100059.52;103608;1313;61330;-82
2023/03/07 01:42:05;;;;;;;;;;;;;;;21.23;33.08;100064.23;103423;1308;74677;-82
2023/03/07 01:44:51;;;;;;;;;;;;;;;21.23;33.01;100064.95;103608;1308;61303;-82
2023/03/07 01:47:16;;;;;;;;;;;;;;;21.22;33.10;100061.56;103753;1309;61156;-82
2023/03/07 01:49:44;;;;;;;;;;;;;;;21.22;33.07;100060.69;103619;1308;61393;-83
2023/03/07 01:52:17;;;;;;;;;;;;;;;21.22;32.99;100060.69;103582;1309;75536;-82
2023/03/07 01:54:53;;;;;;;;;;;;;;;21.23;33.18;100063.51;103763;1308;62702;-81
2023/03/07 01:57:19;;;;;;;;;;;;;;;21.23;33.08;100063.48;103771;1309;61703;-81
2023/03/07 01:59:45;;;;;;;;;;;;;;;21.23;33.19;100057.41;103798;1309;61282;-81
2023/03/07 02:02:12;;;;;;;;;;;;;;;21.23;33.19;100056.15;103562;1308;61314;-82
2023/03/07 02:04:41;;;;;;;;;;;;;;;21.23;33.05;100054.55;103784;1308;61199;-81
2023/03/07 02:07:09;;;;;;;;;;;;;;;21.23;33.05;100052.56;103748;1308;61320;-82
2023/03/07 02:09:34;;;;;;;;;;;;;;;21.23;33.09;100048.30;103618;1309;71931;-82
2023/03/07 02:12:00;;;;;;;;;;;;;;;21.23;33.06;100049.00;103545;1313;61313;-83
2023/03/07 02:14:29;;;;;;;;;;;;;;;21.22;33.19;100043.34;103559;1308;61282;-83
2023/03/07 02:16:54;;;;;;;;;;;;;;;21.23;33.06;100037.55;103614;1308;61260;-82
2023/03/07 02:19:38;;;;;;;;;;;;;;;21.23;33.16;100032.90;103580;1314;61323;-81
2023/03/07 02:22:11;;;;;;;;;;;;;;;21.22;33.00;100041.55;103815;1308;75992;-82
2023/03/07 02:24:55;;;;;;;;;;;;;;;21.23;33.21;100053.84;103603;1312;61340;-82
2023/03/07 02:27:21;;;;;;;;;;;;;;;21.23;33.03;100052.80;103794;1308;61217;-82
2023/03/07 02:29:47;;;;;;;;;;;;;;;21.22;32.94;100056.73;103522;1308;61310;-81
2023/03/07 02:32:14;;;;;;;;;;;;;;;21.22;32.93;100059.95;103536;1308;61387;-82
2023/03/07 02:34:40;;;;;;;;;;;;;;;21.23;33.04;100060.48;103564;1309;61272;-83
2023/03/07 02:37:26;;;;;;;;;;;;;;;21.22;32.87;100059.67;103538;1309;61282;-83
2023/03/07 02:39:51;;;;;;;;;;;;;;;21.22;33.03;100058.39;102938;1316;73280;-82
2023/03/07 02:42:18;;;;;;;;;;;;;;;21.22;32.94;100046.39;102995;1317;61446;-83
2023/03/07 02:44:45;;;;;;;;;;;;;;;21.21;33.00;100042.14;102984;1315;61703;-81
2023/03/07 02:47:10;;;;;;;;;;;;;;;21.21;32.89;100038.59;103103;1315;62134;-81
2023/03/07 02:49:36;;;;;;;;;;;;;;;21.22;32.97;100034.02;103014;1320;61448;-81
2023/03/07 02:52:01;;;;;;;;;;;;;;;21.22;32.89;100033.54;102940;1315;61484;-81
2023/03/07 02:54:27;;;;;;;;;;;;;;;21.22;32.97;100029.21;102964;1315;61459;-81
2023/03/07 02:56:53;;;;;;;;;;;;;;;21.22;32.88;100031.52;103123;1314;61270;-81
2023/03/07 02:59:18;;;;;;;;;;;;;;;21.22;32.88;100030.42;102976;1317;61296;-81
2023/03/07 03:01:44;;;;;;;;;;;;;;;21.22;33.04;100028.84;102841;1318;62206;-81
2023/03/07 03:04:10;;;;;;;;;;;;;;;21.21;32.87;100028.92;102961;1317;61259;-82
2023/03/07 03:06:35;;;;;;;;;;;;;;;21.22;32.92;100025.31;102909;1314;61523;-82
2023/03/07 03:09:01;;;;;;;;;;;;;;;21.21;32.89;100024.27;102978;1315;61310;-82
2023/03/07 03:11:28;;;;;;;;;;;;;;;21.22;32.88;100028.54;103110;1314;59474;-82
2023/03/07 03:13:57;;;;;;;;;;;;;;;21.22;32.85;100030.52;103002;1319;73384;-82
2023/03/07 03:16:22;;;;;;;;;;;;;;;21.22;32.87;100029.21;102976;1314;74562;-83
2023/03/07 03:18:48;;;;;;;;;;;;;;;21.21;32.81;100019.79;103618;1308;61365;-81
2023/03/07 03:21:14;;;;;;;;;;;;;;;21.21;32.90;100019.60;103563;1308;61275;-82
2023/03/07 03:23:40;;;;;;;;;;;;;;;21.22;32.77;100017.64;103594;1308;61399;-81
2023/03/07 03:26:06;;;;;;;;;;;;;;;21.21;32.77;100015.38;103555;1312;62176;-82
2023/03/07 03:28:33;;;;;;;;;;;;;;;21.21;32.86;100013.55;103809;1308;61777;-82
2023/03/07 03:31:00;;;;;;;;;;;;;;;21.22;32.94;100006.36;103624;1313;61327;-83
2023/03/07 03:33:26;;;;;;;;;;;;;;;21.20;32.80;100009.66;103520;1314;61941;-83
2023/03/07 03:35:51;;;;;;;;;;;;;;;21.21;32.72;100009.98;103558;1309;61324;-83
2023/03/07 03:38:17;;;;;;;;;;;;;;;21.21;32.73;100010.87;103621;1308;61306;-82
2023/03/07 03:40:42;;;;;;;;;;;;;;;21.21;32.68;100012.48;103610;1312;61171;-81
2023/03/07 03:43:08;;;;;;;;;;;;;;;21.21;32.80;100014.80;103557;1309;61304;-82
2023/03/07 03:45:33;;;;;;;;;;;;;;;21.22;32.92;100012.80;103575;1314;61734;-82
2023/03/07 03:47:59;;;;;;;;;;;;;;;21.21;32.73;100012.30;103765;1314;60788;-82
2023/03/07 03:50:24;;;;;;;;;;;;;;;21.21;32.83;100016.23;103818;1309;61290;-82
2023/03/07 03:52:50;;;;;;;;;;;;;;;21.21;32.80;100009.80;103596;1314;61273;-83
2023/03/07 03:55:15;;;;;;;;;;;;;;;21.21;32.76;100009.27;103383;1312;61384;-82
2023/03/07 03:57:41;;;;;;;;;;;;;;;21.21;32.87;100010.52;103788;1312;61387;-83
2023/03/07 04:00:13;;;;;;;;;;;;;;;21.21;32.90;100010.89;103602;1309;61917;-82
2023/03/07 04:02:40;;;;;;;;;;;;;;;21.21;32.71;100007.79;103640;1314;61141;-81
2023/03/07 04:05:06;;;;;;;;;;;;;;;21.22;32.78;100006.16;103772;1309;61346;-82
2023/03/07 04:07:31;;;;;;;;;;;;;;;21.21;32.81;100002.63;103614;1308;59761;-82
2023/03/07 04:09:57;;;;;;;;;;;;;;;21.21;32.67;100008.91;103625;1309;61281;-81
2023/03/07 04:12:23;;;;;;;;;;;;;;;21.21;32.83;100013.35;103522;1314;61179;-81
2023/03/07 04:14:48;;;;;;;;;;;;;;;21.21;32.78;100007.11;103801;1309;61330;-81
2023/03/07 04:17:16;;;;;;;;;;;;;;;21.21;32.72;100014.06;103639;1311;61407;-80
2023/03/07 04:19:42;;;;;;;;;;;;;;;21.21;32.79;100011.40;103581;1312;72355;-82
2023/03/07 04:22:07;;;;;;;;;;;;;;;21.22;32.73;100009.40;103557;1311;61386;-81
2023/03/07 04:24:33;;;;;;;;;;;;;;;21.21;32.83;100008.52;103588;1314;61404;-81
2023/03/07 04:26:58;;;;;;;;;;;;;;;21.22;32.84;100013.13;103783;1312;61329;-81
2023/03/07 04:29:24;;;;;;;;;;;;;;;21.22;32.79;100015.28;103852;1309;59399;-81
2023/03/07 04:31:51;;;;;;;;;;;;;;;21.21;32.74;100016.42;103577;1310;72705;-81
2023/03/07 04:34:19;;;;;;;;;;;;;;;21.22;32.61;100013.50;103771;1309;74467;-81
2023/03/07 04:36:44;;;;;;;;;;;;;;;21.21;32.71;100019.60;103754;1312;61208;-81
2023/03/07 04:39:13;;;;;;;;;;;;;;;21.20;32.68;100016.11;103564;1314;61327;-81
2023/03/07 04:41:39;;;;;;;;;;;;;;;21.19;32.53;100012.81;103551;1314;72811;-82
2023/03/07 04:44:04;;;;;;;;;;;;;;;21.19;32.62;100015.17;103521;1314;61505;-82
2023/03/07 04:46:30;;;;;;;;;;;;;;;21.19;32.56;100017.85;103387;1308;61322;-83
2023/03/07 04:48:55;;;;;;;;;;;;;;;21.19;32.61;100017.30;103582;1308;61422;-82
2023/03/07 04:51:21;;;;;;;;;;;;;;;21.19;32.49;100022.15;103650;1312;61422;-81
2023/03/07 04:53:47;;;;;;;;;;;;;;;21.19;32.55;100024.25;103567;1310;73629;-82
2023/03/07 04:56:15;;;;;;;;;;;;;;;21.19;32.41;100032.17;103801;1313;61285;-82
2023/03/07 04:58:41;;;;;;;;;;;;;;;21.18;32.36;100036.52;103425;1309;61180;-82
2023/03/07 05:01:07;;;;;;;;;;;;;;;21.16;32.46;100039.20;103507;1308;61352;-82
2023/03/07 05:03:33;;;;;;;;;;;;;;;21.13;32.48;100038.72;103645;1309;61438;-82
2023/03/07 05:06:03;;;;;;;;;;;;;;;21.09;32.30;100037.97;103437;1309;61194;-82
2023/03/07 05:08:29;;;;;;;;;;;;;;;21.05;32.34;100034.71;103695;1309;61193;-83
2023/03/07 05:10:54;;;;;;;;;;;;;;;21.01;32.40;100033.27;103747;1308;61448;-82
2023/03/07 05:13:20;;;;;;;;;;;;;;;20.98;32.25;100035.66;103523;1309;61424;-83
2023/03/07 05:15:49;;;;;;;;;;;;;;;20.96;32.30;100036.08;103736;1308;61270;-83
2023/03/07 05:18:15;;;;;;;;;;;;;;;20.93;32.17;100036.77;103534;1308;61173;-83
2023/03/07 05:21:08;;;;;;;;;;;;;;;20.93;32.10;100042.85;103759;1309;61221;-83
2023/03/07 05:23:34;;;;;;;;;;;;;;;20.94;32.12;100049.61;102919;1317;72435;-82
2023/03/07 05:25:59;;;;;;;;;;;;;;;20.93;31.95;100043.57;102739;1317;61627;-81
2023/03/07 05:28:26;;;;;;;;;;;;;;;20.90;31.99;100042.73;102854;1318;61383;-82
2023/03/07 05:30:51;;;;;;;;;;;;;;;20.86;31.94;100041.68;102671;1317;61285;-82
2023/03/07 05:33:19;;;;;;;;;;;;;;;20.81;31.91;100037.27;102733;1317;61333;-83
2023/03/07 05:35:45;;;;;;;;;;;;;;;20.78;31.97;100047.36;102616;1317;61382;-83
2023/03/07 05:38:11;;;;;;;;;;;;;;;20.74;31.96;100054.06;102682;1315;61385;-83
2023/03/07 05:40:37;;;;;;;;;;;;;;;20.71;31.94;100060.59;102675;1317;61464;-83
2023/03/07 05:43:02;;;;;;;;;;;;;;;20.68;31.94;100063.52;102549;1320;61215;-83
2023/03/07 05:45:28;;;;;;;;;;;;;;;20.64;31.89;100067.38;102411;1320;65221;-83
2023/03/07 05:47:55;;;;;;;;;;;;;;;20.60;31.80;100073.73;102479;1316;61251;-83
2023/03/07 05:50:21;;;;;;;;;;;;;;;20.56;31.72;100073.39;102502;1315;61409;-83
2023/03/07 05:52:46;;;;;;;;;;;;;;;20.51;31.58;100074.86;102544;1317;61418;-83
2023/03/07 05:55:12;;;;;;;;;;;;;;;20.47;31.68;100076.10;102267;1317;63093;-83
2023/03/07 05:57:38;;;;;;;;;;;;;;;20.42;31.57;100073.05;102266;1321;61460;-83
2023/03/07 06:00:05;;;;;;;;;;;;;;;20.39;31.52;100070.29;102197;1308;61330;-82
2023/03/07 06:02:30;;;;;;;;;;;;;;;20.36;31.55;100072.67;102706;1311;61617;-82
2023/03/07 06:04:59;;;;;;;;;;;;;;;20.34;31.38;100070.52;102787;1309;61394;-84
2023/03/07 06:07:25;;;;;;;;;;;;;;;20.30;31.40;100071.38;102935;1308;73617;-82
2023/03/07 06:09:51;;;;;;;;;;;;;;;20.26;31.33;100073.83;104530;1308;74612;-82
2023/03/07 06:12:17;;;;;;;;;;;;;;;20.26;31.37;100075.73;104530;1308;60552;-82
2023/03/07 06:14:42;;;;;;;;;;;;;;;20.28;31.44;100071.88;104367;1308;59108;-83
2023/03/07 06:17:08;;;;;;;;;;;;;;;20.30;31.43;100074.23;104564;1308;59584;-82
2023/03/07 06:19:34;;;;;;;;;;;;;;;20.32;31.53;100071.05;104248;1309;59651;-82
2023/03/07 06:21:59;;;;;;;;;;;;;;;20.34;31.41;100066.08;104386;1308;59237;-83
2023/03/07 06:24:25;;;;;;;;;;;;;;;20.35;31.40;100064.04;104548;1308;59953;-82
2023/03/07 06:26:50;;;;;;;;;;;;;;;20.35;31.51;100065.56;104177;1311;59131;-82
2023/03/07 06:29:16;;;;;;;;;;;;;;;20.37;31.37;100065.06;102806;1314;61330;-82
2023/03/07 06:31:41;;;;;;;;;;;;;;;20.38;31.48;100066.77;102822;1309;61435;-82
2023/03/07 06:34:07;;;;;;;;;;;;;;;20.39;31.42;100065.83;103075;1313;61342;-82
2023/03/07 06:36:33;;;;;;;;;;;;;;;20.40;31.44;100066.30;102976;1308;61241;-82
2023/03/07 06:38:58;;;;;;;;;;;;;;;20.40;31.23;100069.33;103282;1308;61829;-82
2023/03/07 06:41:28;;;;;;;;;;;;;;;20.41;31.40;100072.48;103283;1308;61463;-83
2023/03/07 06:43:53;;;;;;;;;;;;;;;20.41;31.33;100074.25;103041;1309;74396;-83
2023/03/07 06:46:21;;;;;;;;;;;;;;;20.40;31.37;100077.52;103151;1308;61384;-82
2023/03/07 06:48:46;;;;;;;;;;;;;;;20.41;31.38;100078.70;103167;1308;61305;-83
2023/03/07 06:51:12;;;;;;;;;;;;;;;20.41;31.24;100083.01;102812;1309;61435;-84
2023/03/07 06:53:39;;;;;;;;;;;;;;;20.39;31.09;100083.48;102732;1308;61279;-84
2023/03/07 06:56:05;;;;;;;;;;;;;;;20.34;31.14;100081.56;102764;1309;61336;-83
2023/03/07 06:58:31;;;;;;;;;;;;;;;20.29;31.11;100082.72;102734;1311;63504;-84
2023/03/07 07:00:57;;;;;;;;;;;;;;;20.26;31.34;100082.72;102819;1308;61304;-81
2023/03/07 07:03:22;;;;;;;;;;;;;;;20.25;31.42;100092.98;102486;1309;607215;-83
2023/03/07 07:05:48;;;;;;;;;;;;;;;20.25;31.36;100089.44;102768;1308;61307;-83
2023/03/07 07:08:14;;;;;;;;;;;;;;;20.24;31.32;100089.11;102742;1309;61263;-83
2023/03/07 07:10:40;;;;;;;;;;;;;;;20.23;31.46;100090.82;102766;1310;61279;-82
2023/03/07 07:13:05;;;;;;;;;;;;;;;20.22;31.38;100092.54;102789;1309;61508;-81
2023/03/07 07:15:31;;;;;;;;;;;;;;;20.21;31.42;100096.56;102938;1308;61390;-82
2023/03/07 07:17:57;;;;;;;;;;;;;;;20.20;31.44;100092.70;102774;1309;61432;-82
2023/03/07 07:20:22;;;;;;;;;;;;;;;20.19;31.47;100086.69;103060;1309;61497;-84
2023/03/07 07:23:14;;;;;;;;;;;;;;;20.18;31.40;100084.26;102876;1309;61251;-81
2023/03/07 07:25:40;;;;;;;;;;;;;;;20.18;31.41;100083.19;102321;1317;72668;-83
2023/03/07 07:28:05;;;;;;;;;;;;;;;20.17;31.24;100085.91;102400;1317;61512;-82
2023/03/07 07:30:31;;;;;;;;;;;;;;;20.16;31.21;100088.31;102349;1315;61490;-83
2023/03/07 07:32:56;;;;;;;;;;;;;;;20.16;31.23;100084.98;102344;1316;61433;-82
2023/03/07 07:35:22;;;;;;;;;;;;;;;20.14;31.13;100084.73;102256;1317;61522;-83
2023/03/07 07:37:48;;;;;;;;;;;;;;;20.13;31.11;100088.75;102588;1317;72534;-83
2023/03/07 07:40:14;;;;;;;;;;;;;;;20.12;30.89;100085.80;102298;1316;61334;-83
2023/03/07 07:42:42;;;;;;;;;;;;;;;20.11;30.94;100082.84;102398;1317;61403;-83
2023/03/07 07:45:08;;;;;;;;;;;;;;;20.09;30.91;100082.07;102375;1317;61222;-84
2023/03/07 07:47:33;;;;;;;;;;;;;;;20.08;30.84;100080.23;102412;1316;61253;-84
2023/03/07 07:49:59;;;;;;;;;;;;;;;20.07;30.78;100078.69;102324;1317;61741;-83
2023/03/07 07:52:24;;;;;;;;;;;;;;;20.06;30.78;100080.22;102880;1317;59613;-83
2023/03/07 07:54:50;;;;;;;;;;;;;;;20.04;30.62;100079.06;102854;1320;61196;-83
2023/03/07 07:57:15;;;;;;;;;;;;;;;19.94;30.42;100079.55;102918;1316;61198;-83
2023/03/07 07:59:41;;;;;;;;;;;;;;;19.85;30.40;100074.70;102619;1317;61295;-83
2023/03/07 08:02:10;;;;;;;;;;;;;;;19.78;30.40;100073.91;102330;1308;61869;-83
2023/03/07 08:04:37;;;;;;;;;;;;;;;19.76;30.40;100079.77;103304;1308;61224;-83
2023/03/07 08:07:03;;;;;;;;;;;;;;;19.77;30.51;100079.39;103681;1308;61643;-84
2023/03/07 08:09:28;;;;;;;;;;;;;;;19.79;30.43;100081.53;103595;1309;60062;-83
2023/03/07 08:11:57;;;;;;;;;;;;;;;19.81;30.34;100077.16;103436;1313;64970;-82
2023/03/07 08:14:23;;;;;;;;;;;;;;;19.81;30.17;100083.54;103379;1308;61451;-83
2023/03/07 08:16:48;;;;;;;;;;;;;;;19.72;30.08;100083.52;102930;1308;60708;-81
2023/03/07 08:19:14;;;;;;;;;;;;;;;19.68;30.14;100087.91;103367;1308;59547;-82
2023/03/07 08:21:40;;;;;;;;;;;;;;;19.71;30.10;100086.11;103510;1309;61343;-82
2023/03/07 08:24:06;;;;;;;;;;;;;;;19.73;30.05;100086.77;103266;1311;59430;-82
2023/03/07 08:26:32;;;;;;;;;;;;;;;19.77;30.09;100080.97;103348;1309;61211;-82
2023/03/07 08:28:57;;;;;;;;;;;;;;;19.81;29.98;100083.04;103181;1308;59389;-82
2023/03/07 08:31:24;;;;;;;;;;;;;;;19.83;30.12;100075.92;103158;1309;61780;-81
2023/03/07 08:33:50;;;;;;;;;;;;;;;19.86;30.18;100075.70;103401;1308;61323;-83
2023/03/07 08:36:15;;;;;;;;;;;;;;;19.89;30.04;100078.83;103367;1309;61387;-83
2023/03/07 08:38:41;;;;;;;;;;;;;;;19.91;30.07;100077.06;103304;1311;60100;-82
2023/03/07 08:41:06;;;;;;;;;;;;;;;19.94;30.15;100078.47;103731;1311;61330;-82
2023/03/07 08:43:32;;;;;;;;;;;;;;;19.96;30.10;100078.36;103451;1308;61346;-82
2023/03/07 08:45:58;;;;;;;;;;;;;;;19.97;30.18;100076.83;103967;1310;59375;-82
2023/03/07 08:48:24;;;;;;;;;;;;;;;19.98;30.23;100073.12;104352;1308;59550;-82
2023/03/07 08:50:50;;;;;;;;;;;;;;;20.00;30.04;100076.05;104387;1313;59259;-82
2023/03/07 08:53:15;;;;;;;;;;;;;;;20.02;30.11;100075.00;103916;1311;59260;-83
2023/03/07 08:55:42;;;;;;;;;;;;;;;20.03;30.12;100072.71;103573;1308;61292;-83
2023/03/07 08:58:08;;;;;;;;;;;;;;;20.05;30.12;100072.60;103571;1308;75506;-84
2023/03/07 09:00:33;;;;;;;;;;;;;;;20.07;29.97;100071.91;103840;1308;59543;-84
2023/03/07 09:03:00;;;;;;;;;;;;;;;20.09;30.08;100071.02;103661;1308;59790;-82
2023/03/07 09:05:26;;;;;;;;;;;;;;;20.10;30.13;100072.73;103702;1308;59462;-83
2023/03/07 09:07:52;;;;;;;;;;;;;;;20.07;29.95;100068.48;103888;1308;63028;-82
2023/03/07 09:10:19;;;;;;;;;;;;;;;20.05;30.02;100069.91;103641;1309;61434;-83
2023/03/07 09:12:46;;;;;;;;;;;;;;;20.04;30.11;100067.63;103654;1311;60212;-84
2023/03/07 09:15:12;;;;;;;;;;;;;;;20.07;30.14;100065.67;103905;1308;60676;-83
2023/03/07 09:17:37;;;;;;;;;;;;;;;20.06;30.27;100067.27;103475;1308;59745;-84
2023/03/07 09:20:03;;;;;;;;;;;;;;;20.07;30.19;100066.55;103824;1313;60403;-84
2023/03/07 09:22:29;;;;;;;;;;;;;;;20.07;30.08;100066.68;103658;1308;59676;-84
2023/03/07 09:24:54;;;;;;;;;;;;;;;20.10;30.29;100060.80;103643;1311;59481;-84
2023/03/07 09:27:20;;;;;;;;;;;;;;;20.11;30.14;100060.50;103615;1308;61316;-84
2023/03/07 09:29:46;;;;;;;;;;;;;;;20.13;30.31;100061.65;103609;1308;61384;-84
2023/03/07 09:32:11;;;;;;;;;;;;;;;20.14;30.09;100062.80;103705;1308;61390;-85
2023/03/07 09:35:01;;;;;;;;;;;;;;;20.16;30.14;100056.34;103531;1309;61492;-83
2023/03/07 09:37:27;;;;;;;;;;;;;;;20.19;30.26;100054.36;102945;1318;73695;-83
2023/03/07 09:39:52;;;;;;;;;;;;;;;20.22;30.20;100053.96;102921;1317;61345;-82
2023/03/07 09:42:22;;;;;;;;;;;;;;;20.24;30.25;100055.00;102946;1317;61608;-82
2023/03/07 09:45:07;;;;;;;;;;;;;;;20.25;30.20;100051.52;102949;1314;60161;-82
2023/03/07 09:47:35;;;;;;;;;;;;;;;20.26;30.27;100049.82;102870;1314;72661;-83
2023/03/07 09:50:01;;;;;;;;;;;;;;;20.27;30.16;100037.99;102917;1317;74208;-83
2023/03/07 09:52:28;;;;;;;;;;;;;;;20.28;30.16;100038.64;102839;1317;61588;-83
2023/03/07 09:55:00;;;;;;;;;;;;;;;20.30;30.21;100034.42;102909;1317;60077;-83
2023/03/07 09:57:27;;;;;;;;;;;;;;;20.30;30.17;100037.92;102906;1317;72545;-83
2023/03/07 09:59:54;;;;;;;;;;;;;;;20.31;30.13;100037.84;102966;1315;75553;-84
2023/03/07 10:02:22;;;;;;;;;;;;;;;20.33;30.21;100033.39;103130;1316;60038;-84
2023/03/07 10:05:00;;;;;;;;;;;;;;;20.36;30.52;100029.39;103044;1315;60216;-84
2023/03/07 10:07:51;;;;;;;;;;;;;;;20.39;30.76;100030.77;103060;1316;72782;-84
2023/03/07 10:10:24;;;;;;;;;;;;;;;20.44;30.99;100027.56;102662;1320;75821;-83
2023/03/07 10:13:09;;;;;;;;;;;;;;;20.47;30.97;100026.02;102585;1320;61186;-82
2023/03/07 10:15:41;;;;;;;;;;;;;;;20.45;31.02;100021.00;102912;1317;59981;-83
2023/03/07 10:18:06;;;;;;;;;;;;;;;20.42;30.85;100018.73;103016;1317;73428;-83
2023/03/07 10:20:50;;;;;;;;;;;;;;;20.41;30.88;100016.66;103028;1319;59861;-82
2023/03/07 10:23:16;;;;;;;;;;;;;;;20.41;30.80;100013.41;103085;1317;61443;-82
2023/03/07 10:25:47;;;;;;;;;;;;;;;20.39;30.79;100015.04;103028;1315;59458;-83
2023/03/07 10:28:31;;;;;;;;;;;;;;;20.43;30.99;100011.31;103065;1317;73369;-83
2023/03/07 10:30:58;;;;;;;;;;;;;;;20.50;31.12;100010.95;102956;1317;74698;-83
2023/03/07 10:33:23;;;;;;;;;;;;;;;20.52;31.01;100007.21;103002;1314;59424;-83
2023/03/07 10:35:57;;;;;;;;;;;;;;;20.54;31.08;100001.38;102984;1316;61391;-83
2023/03/07 10:38:43;;;;;;;;;;;;;;;20.56;30.99;99999.59;103770;1317;72284;-84
2023/03/07 10:41:11;;;;;;;;;;;;;;;20.56;30.91;99997.98;103730;1315;75609;-84
2023/03/07 10:43:37;;;;;;;;;;;;;;;20.56;30.94;99994.23;103235;1317;60096;-83
2023/03/07 10:46:05;;;;;;;;;;;;;;;20.56;30.85;99992.02;103059;1314;59691;-83
2023/03/07 10:48:31;;;;;;;;;;;;;;;20.56;30.77;99987.56;103674;1311;72471;-84
2023/03/07 10:51:05;;;;;;;;;;;;;;;20.53;30.60;99987.65;103769;1308;59375;-83
2023/03/07 10:53:32;;;;;;;;;;;;;;;20.50;30.59;99987.33;103597;1309;61150;-84
2023/03/07 10:56:14;;;;;;;;;;;;;;;20.50;30.60;99983.23;103636;1308;61256;-84
2023/03/07 10:58:44;;;;;;;;;;;;;;;20.52;30.46;99971.65;103560;1308;73568;-83
2023/03/07 11:01:14;;;;;;;;;;;;;;;20.53;30.50;99972.81;103666;1308;74691;-82
2023/03/07 11:03:47;;;;;;;;;;;;;;;20.51;30.40;99963.84;103771;1308;61031;-83
2023/03/07 11:06:25;;;;;;;;;;;;;;;20.47;30.31;99967.42;103717;1308;59979;-83
2023/03/07 11:08:54;;;;;;;;;;;;;;;20.45;30.38;99964.91;103816;1308;71385;-82
2023/03/07 11:11:23;;;;;;;;;;;;;;;20.43;30.39;99961.67;103761;1310;75993;-82
2023/03/07 11:14:06;;;;;;;;;;;;;;;20.35;30.32;99963.43;103281;1308;61339;-84
2023/03/07 11:16:31;;;;;;;;;;;;;;;20.38;30.51;99963.33;104429;1308;60679;-83
2023/03/07 11:18:59;;;;;;;;;;;;;;;20.42;30.65;99961.89;104585;1308;59110;-85
2023/03/07 11:21:25;;;;;;;;;;;;;;;20.42;30.52;99959.78;104437;1308;74584;-84
2023/03/07 11:23:57;;;;;;;;;;;;;;;20.42;30.63;99957.13;104592;1308;59256;-84
2023/03/07 11:26:24;;;;;;;;;;;;;;;20.43;30.48;99946.05;104423;1309;60530;-84
2023/03/07 11:29:11;;;;;;;;;;;;;;;20.45;30.52;99939.70;103794;1310;73773;-83
2023/03/07 11:31:40;;;;;;;;;;;;;;;20.48;30.36;99935.49;103212;1308;75622;-83
2023/03/07 11:34:20;;;;;;;;;;;;;;;20.51;30.43;99931.13;103267;1308;61330;-83
2023/03/07 11:36:47;;;;;;;;;;;;;;;20.54;30.30;99921.46;103141;1310;61766;-83
2023/03/07 11:39:29;;;;;;;;;;;;;;;20.52;30.38;99917.10;103196;1308;72332;-82
2023/03/07 11:41:55;;;;;;;;;;;;;;;20.53;30.25;99915.81;102942;1308;74506;-83
2023/03/07 11:44:32;;;;;;;;;;;;;;;20.55;30.19;99918.85;102881;1309;61397;-84
2023/03/07 11:46:57;;;;;;;;;;;;;;;20.56;30.25;99913.05;102835;1308;61234;-83
2023/03/07 11:49:34;;;;;;;;;;;;;;;20.56;30.05;99909.27;103038;1308;61339;-83
2023/03/07 11:52:20;;;;;;;;;;;;;;;20.57;30.12;99908.14;103097;1309;74805;-83
2023/03/07 11:55:01;;;;;;;;;;;;;;;20.56;30.15;99904.44;103089;1308;61304;-83
2023/03/07 11:57:33;;;;;;;;;;;;;;;20.56;29.96;99902.33;103000;1308;61360;-83
2023/03/07 12:00:01;;;;;;;;;;;;;;;20.58;30.11;99897.48;102779;1308;72506;-83
2023/03/07 12:02:30;;;;;;;;;;;;;;;20.60;29.99;99900.38;102653;1308;73254;-84
2023/03/07 12:05:09;;;;;;;;;;;;;;;20.62;30.03;99897.34;102676;1308;61368;-83
2023/03/07 12:07:57;;;;;;;;;;;;;;;20.62;30.07;99896.27;102707;1308;61358;-83
2023/03/07 12:10:42;;;;;;;;;;;;;;;20.65;30.10;99895.72;102489;1309;72534;-82
2023/03/07 12:13:15;;;;;;;;;;;;;;;20.64;30.11;99895.05;103111;1308;75365;-83
2023/03/07 12:15:50;;;;;;;;;;;;;;;20.60;30.05;99900.35;103833;1308;59982;-84
2023/03/07 12:18:34;;;;;;;;;;;;;;;20.57;30.04;99901.30;103759;1308;61392;-83
2023/03/07 12:21:15;;;;;;;;;;;;;;;20.58;29.97;99900.48;103725;1308;72416;-82
2023/03/07 12:23:46;;;;;;;;;;;;;;;20.60;30.02;99895.55;103711;1309;75440;-83
2023/03/07 12:26:39;;;;;;;;;;;;;;;20.61;30.17;99894.23;103643;1308;61252;-84
2023/03/07 12:29:09;;;;;;;;;;;;;;;20.59;30.08;99898.65;103428;1308;60517;-83
2023/03/07 12:31:38;;;;;;;;;;;;;;;20.58;29.80;99900.00;103605;1308;73536;-83
2023/03/07 12:34:40;;;;;;;;;;;;;;;20.60;30.03;99897.70;103688;1308;73580;-84